sensor_id;sensor_type;location;lat;lon;timestamp;temperature;humidity
67799;SHT30;54596;43.216;27.904;2023-07-20T00:01:04;25.22;84.69
67799;SHT30;54596;43.216;27.904;2023-07-20T00:03:29;25.23;84.71
67799;SHT30;54596;43.216;27.904;2023-07-20T00:05:55;25.17;84.73
67799;SHT30;54596;43.216;27.904;2023-07-20T00:08:20;25.13;84.01
67799;SHT30;54596;43.216;27.904;2023-07-20T00:10:46;25.10;84.03
67799;SHT30;54596;43.216;27.904;2023-07-20T00:13:11;25.10;83.45
67799;SHT30;54596;43.216;27.904;2023-07-20T00:15:36;25.07;83.27
67799;SHT30;54596;43.216;27.904;2023-07-20T00:18:03;25.03;82.94
67799;SHT30;54596;43.216;27.904;2023-07-20T00:20:28;25.05;83.25
67799;SHT30;54596;43.216;27.904;2023-07-20T00:22:53;25.06;83.27
67799;SHT30;54596;43.216;27.904;2023-07-20T00:25:20;25.02;83.08
67799;SHT30;54596;43.216;27.904;2023-07-20T00:27:45;24.98;82.36
67799;SHT30;54596;43.216;27.904;2023-07-20T00:30:10;24.98;82.64
67799;SHT30;54596;43.216;27.904;2023-07-20T00:32:36;25.00;82.87
67799;SHT30;54596;43.216;27.904;2023-07-20T00:35:01;24.92;82.87
67799;SHT30;54596;43.216;27.904;2023-07-20T00:37:26;24.86;82.62
67799;SHT30;54596;43.216;27.904;2023-07-20T00:39:52;24.75;82.58
67799;SHT30;54596;43.216;27.904;2023-07-20T00:42:18;24.83;82.56
67799;SHT30;54596;43.216;27.904;2023-07-20T00:44:43;24.85;82.38
67799;SHT30;54596;43.216;27.904;2023-07-20T00:47:09;24.82;82.40
67799;SHT30;54596;43.216;27.904;2023-07-20T00:49:34;24.82;82.19
67799;SHT30;54596;43.216;27.904;2023-07-20T00:52:00;24.79;82.08
67799;SHT30;54596;43.216;27.904;2023-07-20T00:54:26;24.81;81.93
67799;SHT30;54596;43.216;27.904;2023-07-20T00:56:53;24.75;82.21
67799;SHT30;54596;43.216;27.904;2023-07-20T00:59:19;24.78;81.73
67799;SHT30;54596;43.216;27.904;2023-07-20T01:01:44;24.75;81.59
67799;SHT30;54596;43.216;27.904;2023-07-20T01:04:10;24.75;81.51
67799;SHT30;54596;43.216;27.904;2023-07-20T01:06:58;24.71;81.05
67799;SHT30;54596;43.216;27.904;2023-07-20T01:09:42;24.72;81.06
67799;SHT30;54596;43.216;27.904;2023-07-20T01:12:12;24.72;80.89
67799;SHT30;54596;43.216;27.904;2023-07-20T01:14:38;24.69;80.91
67799;SHT30;54596;43.216;27.904;2023-07-20T01:17:04;24.67;81.02
67799;SHT30;54596;43.216;27.904;2023-07-20T01:19:29;24.68;81.07
67799;SHT30;54596;43.216;27.904;2023-07-20T01:24:44;24.61;80.40
67799;SHT30;54596;43.216;27.904;2023-07-20T01:30:14;24.62;80.35
67799;SHT30;54596;43.216;27.904;2023-07-20T01:32:42;24.61;80.82
67799;SHT30;54596;43.216;27.904;2023-07-20T01:35:08;24.62;82.35
67799;SHT30;54596;43.216;27.904;2023-07-20T01:37:35;24.68;82.83
67799;SHT30;54596;43.216;27.904;2023-07-20T01:40:01;24.68;84.02
67799;SHT30;54596;43.216;27.904;2023-07-20T01:42:27;24.72;84.36
67799;SHT30;54596;43.216;27.904;2023-07-20T01:44:52;24.75;84.53
67799;SHT30;54596;43.216;27.904;2023-07-20T01:47:18;24.75;84.43
67799;SHT30;54596;43.216;27.904;2023-07-20T01:49:44;24.58;84.52
67799;SHT30;54596;43.216;27.904;2023-07-20T01:52:09;24.47;85.06
67799;SHT30;54596;43.216;27.904;2023-07-20T01:54:34;24.34;85.56
67799;SHT30;54596;43.216;27.904;2023-07-20T01:57:00;24.34;85.57
67799;SHT30;54596;43.216;27.904;2023-07-20T01:59:25;24.34;85.64
67799;SHT30;54596;43.216;27.904;2023-07-20T02:01:50;24.31;85.60
67799;SHT30;54596;43.216;27.904;2023-07-20T02:04:16;24.30;85.61
67799;SHT30;54596;43.216;27.904;2023-07-20T02:06:41;24.24;85.36
67799;SHT30;54596;43.216;27.904;2023-07-20T02:09:07;24.20;85.33
67799;SHT30;54596;43.216;27.904;2023-07-20T02:11:33;24.17;85.07
67799;SHT30;54596;43.216;27.904;2023-07-20T02:13:59;24.21;84.90
67799;SHT30;54596;43.216;27.904;2023-07-20T02:16:24;24.17;84.57
67799;SHT30;54596;43.216;27.904;2023-07-20T02:18:49;24.16;83.55
67799;SHT30;54596;43.216;27.904;2023-07-20T02:21:15;24.13;83.22
67799;SHT30;54596;43.216;27.904;2023-07-20T02:23:41;24.10;82.97
67799;SHT30;54596;43.216;27.904;2023-07-20T02:26:06;24.12;82.39
67799;SHT30;54596;43.216;27.904;2023-07-20T02:28:32;24.10;81.99
67799;SHT30;54596;43.216;27.904;2023-07-20T02:30:57;24.13;81.82
67799;SHT30;54596;43.216;27.904;2023-07-20T02:33:22;24.14;81.61
67799;SHT30;54596;43.216;27.904;2023-07-20T02:35:47;24.16;81.42
67799;SHT30;54596;43.216;27.904;2023-07-20T02:38:13;24.19;81.28
67799;SHT30;54596;43.216;27.904;2023-07-20T02:40:38;24.19;81.12
67799;SHT30;54596;43.216;27.904;2023-07-20T02:43:03;24.24;81.13
67799;SHT30;54596;43.216;27.904;2023-07-20T02:45:29;24.31;81.22
67799;SHT30;54596;43.216;27.904;2023-07-20T02:47:54;24.33;80.97
67799;SHT30;54596;43.216;27.904;2023-07-20T02:50:19;24.31;80.76
67799;SHT30;54596;43.216;27.904;2023-07-20T02:52:45;24.30;80.88
67799;SHT30;54596;43.216;27.904;2023-07-20T02:55:10;24.33;80.88
67799;SHT30;54596;43.216;27.904;2023-07-20T02:57:35;24.27;80.91
67799;SHT30;54596;43.216;27.904;2023-07-20T03:00:02;24.30;80.77
67799;SHT30;54596;43.216;27.904;2023-07-20T03:02:29;24.33;80.62
67799;SHT30;54596;43.216;27.904;2023-07-20T03:04:54;24.30;80.55
67799;SHT30;54596;43.216;27.904;2023-07-20T03:07:22;24.31;80.39
67799;SHT30;54596;43.216;27.904;2023-07-20T03:09:47;24.33;80.33
67799;SHT30;54596;43.216;27.904;2023-07-20T03:12:13;24.36;80.31
67799;SHT30;54596;43.216;27.904;2023-07-20T03:14:38;24.38;80.18
67799;SHT30;54596;43.216;27.904;2023-07-20T03:17:03;24.43;80.14
67799;SHT30;54596;43.216;27.904;2023-07-20T03:19:29;24.45;79.92
67799;SHT30;54596;43.216;27.904;2023-07-20T03:21:55;24.50;79.78
67799;SHT30;54596;43.216;27.904;2023-07-20T03:24:20;24.53;79.66
67799;SHT30;54596;43.216;27.904;2023-07-20T03:26:46;24.55;79.57
67799;SHT30;54596;43.216;27.904;2023-07-20T03:29:11;24.62;79.49
67799;SHT30;54596;43.216;27.904;2023-07-20T03:31:36;24.67;79.48
67799;SHT30;54596;43.216;27.904;2023-07-20T03:34:02;24.68;79.38
67799;SHT30;54596;43.216;27.904;2023-07-20T03:36:27;24.75;79.22
67799;SHT30;54596;43.216;27.904;2023-07-20T03:39:11;24.83;79.04
67799;SHT30;54596;43.216;27.904;2023-07-20T03:41:36;24.83;78.95
67799;SHT30;54596;43.216;27.904;2023-07-20T03:44:02;24.93;78.95
67799;SHT30;54596;43.216;27.904;2023-07-20T03:46:27;24.96;77.83
67799;SHT30;54596;43.216;27.904;2023-07-20T03:48:52;25.17;77.06
67799;SHT30;54596;43.216;27.904;2023-07-20T03:51:18;25.31;76.88
67799;SHT30;54596;43.216;27.904;2023-07-20T03:53:43;25.35;76.26
67799;SHT30;54596;43.216;27.904;2023-07-20T03:56:08;25.31;76.19
67799;SHT30;54596;43.216;27.904;2023-07-20T03:58:34;25.34;76.27
67799;SHT30;54596;43.216;27.904;2023-07-20T04:00:59;25.45;76.08
67799;SHT30;54596;43.216;27.904;2023-07-20T04:03:24;25.67;75.69
67799;SHT30;54596;43.216;27.904;2023-07-20T04:05:53;25.76;75.38
67799;SHT30;54596;43.216;27.904;2023-07-20T04:11:02;25.82;74.69
67799;SHT30;54596;43.216;27.904;2023-07-20T04:13:27;25.76;74.99
67799;SHT30;54596;43.216;27.904;2023-07-20T04:15:53;25.74;75.25
67799;SHT30;54596;43.216;27.904;2023-07-20T04:18:19;25.54;75.30
67799;SHT30;54596;43.216;27.904;2023-07-20T04:20:44;25.58;75.36
67799;SHT30;54596;43.216;27.904;2023-07-20T04:23:10;25.50;75.27
67799;SHT30;54596;43.216;27.904;2023-07-20T04:25:35;25.43;75.53
67799;SHT30;54596;43.216;27.904;2023-07-20T04:28:04;25.47;74.70
67799;SHT30;54596;43.216;27.904;2023-07-20T04:30:30;25.51;74.65
67799;SHT30;54596;43.216;27.904;2023-07-20T04:32:55;25.58;74.32
67799;SHT30;54596;43.216;27.904;2023-07-20T04:35:54;25.65;74.15
67799;SHT30;54596;43.216;27.904;2023-07-20T04:38:12;25.69;73.73
67799;SHT30;54596;43.216;27.904;2023-07-20T04:40:37;25.72;73.85
67799;SHT30;54596;43.216;27.904;2023-07-20T04:43:03;25.75;74.72
67799;SHT30;54596;43.216;27.904;2023-07-20T04:45:28;25.79;74.45
67799;SHT30;54596;43.216;27.904;2023-07-20T04:47:54;25.93;73.66
67799;SHT30;54596;43.216;27.904;2023-07-20T04:50:19;26.09;73.43
67799;SHT30;54596;43.216;27.904;2023-07-20T04:52:45;26.23;73.04
67799;SHT30;54596;43.216;27.904;2023-07-20T04:55:11;26.36;72.60
67799;SHT30;54596;43.216;27.904;2023-07-20T04:57:36;26.49;72.45
67799;SHT30;54596;43.216;27.904;2023-07-20T05:00:02;26.67;71.92
67799;SHT30;54596;43.216;27.904;2023-07-20T05:02:28;26.79;71.72
67799;SHT30;54596;43.216;27.904;2023-07-20T05:04:54;26.92;70.98
67799;SHT30;54596;43.216;27.904;2023-07-20T05:07:19;27.09;70.73
67799;SHT30;54596;43.216;27.904;2023-07-20T05:09:44;27.20;70.73
67799;SHT30;54596;43.216;27.904;2023-07-20T05:12:10;27.37;69.74
67799;SHT30;54596;43.216;27.904;2023-07-20T05:14:37;27.58;68.80
67799;SHT30;54596;43.216;27.904;2023-07-20T05:17:02;27.79;68.43
67799;SHT30;54596;43.216;27.904;2023-07-20T05:19:27;28.20;67.94
67799;SHT30;54596;43.216;27.904;2023-07-20T05:21:53;28.43;67.15
67799;SHT30;54596;43.216;27.904;2023-07-20T05:24:18;28.57;66.65
67799;SHT30;54596;43.216;27.904;2023-07-20T05:26:43;28.85;65.90
67799;SHT30;54596;43.216;27.904;2023-07-20T05:29:09;29.13;65.32
67799;SHT30;54596;43.216;27.904;2023-07-20T05:31:34;29.35;64.84
67799;SHT30;54596;43.216;27.904;2023-07-20T05:33:59;29.73;63.64
67799;SHT30;54596;43.216;27.904;2023-07-20T05:36:25;30.47;62.34
67799;SHT30;54596;43.216;27.904;2023-07-20T05:38:50;32.12;58.94
67799;SHT30;54596;43.216;27.904;2023-07-20T05:41:15;34.07;55.06
67799;SHT30;54596;43.216;27.904;2023-07-20T05:43:41;35.20;52.79
67799;SHT30;54596;43.216;27.904;2023-07-20T05:46:07;34.89;52.18
67799;SHT30;54596;43.216;27.904;2023-07-20T05:48:32;35.91;51.16
67799;SHT30;54596;43.216;27.904;2023-07-20T05:50:58;36.78;49.74
67799;SHT30;54596;43.216;27.904;2023-07-20T05:53:23;37.20;48.98
67799;SHT30;54596;43.216;27.904;2023-07-20T05:55:55;37.50;48.79
67799;SHT30;54596;43.216;27.904;2023-07-20T05:58:20;38.04;48.11
67799;SHT30;54596;43.216;27.904;2023-07-20T06:00:49;38.30;47.32
67799;SHT30;54596;43.216;27.904;2023-07-20T06:03:14;38.33;47.24
67799;SHT30;54596;43.216;27.904;2023-07-20T06:05:41;38.41;47.17
67799;SHT30;54596;43.216;27.904;2023-07-20T06:08:07;38.19;47.52
67799;SHT30;54596;43.216;27.904;2023-07-20T06:10:32;37.54;48.11
67799;SHT30;54596;43.216;27.904;2023-07-20T06:12:58;37.77;47.96
67799;SHT30;54596;43.216;27.904;2023-07-20T06:15:24;37.91;47.38
67799;SHT30;54596;43.216;27.904;2023-07-20T06:17:50;37.99;47.36
67799;SHT30;54596;43.216;27.904;2023-07-20T06:20:16;36.89;49.08
67799;SHT30;54596;43.216;27.904;2023-07-20T06:22:41;36.86;49.48
67799;SHT30;54596;43.216;27.904;2023-07-20T06:25:06;35.64;51.30
67799;SHT30;54596;43.216;27.904;2023-07-20T06:27:32;34.51;53.62
67799;SHT30;54596;43.216;27.904;2023-07-20T06:29:57;33.75;55.02
67799;SHT30;54596;43.216;27.904;2023-07-20T06:32:22;33.21;56.17
67799;SHT30;54596;43.216;27.904;2023-07-20T06:34:48;32.75;57.44
67799;SHT30;54596;43.216;27.904;2023-07-20T06:37:13;32.21;55.43
67799;SHT30;54596;43.216;27.904;2023-07-20T06:39:38;31.89;55.01
67799;SHT30;54596;43.216;27.904;2023-07-20T06:42:04;31.65;54.36
67799;SHT30;54596;43.216;27.904;2023-07-20T06:44:29;31.07;55.19
67799;SHT30;54596;43.216;27.904;2023-07-20T06:46:54;30.93;55.68
67799;SHT30;54596;43.216;27.904;2023-07-20T06:49:23;30.67;56.29
67799;SHT30;54596;43.216;27.904;2023-07-20T06:51:49;30.34;56.76
67799;SHT30;54596;43.216;27.904;2023-07-20T06:54:14;30.14;57.21
67799;SHT30;54596;43.216;27.904;2023-07-20T06:56:39;30.00;57.42
67799;SHT30;54596;43.216;27.904;2023-07-20T06:59:05;29.99;57.74
67799;SHT30;54596;43.216;27.904;2023-07-20T07:01:30;29.85;58.69
67799;SHT30;54596;43.216;27.904;2023-07-20T07:03:55;29.82;59.07
67799;SHT30;54596;43.216;27.904;2023-07-20T07:06:21;29.71;59.83
67799;SHT30;54596;43.216;27.904;2023-07-20T07:08:47;29.69;60.33
67799;SHT30;54596;43.216;27.904;2023-07-20T07:11:12;29.54;61.74
67799;SHT30;54596;43.216;27.904;2023-07-20T07:13:38;29.50;62.02
67799;SHT30;54596;43.216;27.904;2023-07-20T07:16:04;29.48;63.57
67799;SHT30;54596;43.216;27.904;2023-07-20T07:18:29;29.43;63.02
67799;SHT30;54596;43.216;27.904;2023-07-20T07:20:54;29.38;63.95
67799;SHT30;54596;43.216;27.904;2023-07-20T07:23:20;29.35;64.08
67799;SHT30;54596;43.216;27.904;2023-07-20T07:25:45;29.31;63.21
67799;SHT30;54596;43.216;27.904;2023-07-20T07:28:11;29.38;63.57
67799;SHT30;54596;43.216;27.904;2023-07-20T07:30:36;29.44;63.07
67799;SHT30;54596;43.216;27.904;2023-07-20T07:33:02;29.48;62.33
67799;SHT30;54596;43.216;27.904;2023-07-20T07:35:27;29.57;62.31
67799;SHT30;54596;43.216;27.904;2023-07-20T07:37:53;29.66;61.33
67799;SHT30;54596;43.216;27.904;2023-07-20T07:40:18;29.86;61.13
67799;SHT30;54596;43.216;27.904;2023-07-20T07:42:43;29.95;60.40
67799;SHT30;54596;43.216;27.904;2023-07-20T07:45:09;30.07;60.04
67799;SHT30;54596;43.216;27.904;2023-07-20T07:47:34;31.99;56.30
67799;SHT30;54596;43.216;27.904;2023-07-20T07:50:00;31.68;56.66
67799;SHT30;54596;43.216;27.904;2023-07-20T07:52:26;31.59;56.78
67799;SHT30;54596;43.216;27.904;2023-07-20T07:54:51;32.20;55.77
67799;SHT30;54596;43.216;27.904;2023-07-20T07:57:16;31.99;55.71
67799;SHT30;54596;43.216;27.904;2023-07-20T07:59:42;31.79;55.70
67799;SHT30;54596;43.216;27.904;2023-07-20T08:02:07;31.66;55.17
67799;SHT30;54596;43.216;27.904;2023-07-20T08:04:32;31.13;56.06
67799;SHT30;54596;43.216;27.904;2023-07-20T08:06:58;30.99;56.51
67799;SHT30;54596;43.216;27.904;2023-07-20T08:09:24;30.82;56.72
67799;SHT30;54596;43.216;27.904;2023-07-20T08:11:49;30.79;56.36
67799;SHT30;54596;43.216;27.904;2023-07-20T08:14:15;30.62;56.72
67799;SHT30;54596;43.216;27.904;2023-07-20T08:16:40;30.58;57.29
67799;SHT30;54596;43.216;27.904;2023-07-20T08:19:05;30.57;57.63
67799;SHT30;54596;43.216;27.904;2023-07-20T08:21:31;30.42;57.83
67799;SHT30;54596;43.216;27.904;2023-07-20T08:23:56;30.38;57.72
67799;SHT30;54596;43.216;27.904;2023-07-20T08:26:23;30.41;57.68
67799;SHT30;54596;43.216;27.904;2023-07-20T08:28:48;30.47;57.40
67799;SHT30;54596;43.216;27.904;2023-07-20T08:31:14;30.44;57.26
67799;SHT30;54596;43.216;27.904;2023-07-20T08:33:39;30.61;56.99
67799;SHT30;54596;43.216;27.904;2023-07-20T08:36:04;30.78;56.66
67799;SHT30;54596;43.216;27.904;2023-07-20T08:38:30;31.11;56.21
67799;SHT30;54596;43.216;27.904;2023-07-20T08:40:56;31.34;56.01
67799;SHT30;54596;43.216;27.904;2023-07-20T08:43:22;31.42;55.80
67799;SHT30;54596;43.216;27.904;2023-07-20T08:45:51;31.55;55.60
67799;SHT30;54596;43.216;27.904;2023-07-20T08:48:17;31.58;55.61
67799;SHT30;54596;43.216;27.904;2023-07-20T08:50:43;31.49;56.45
67799;SHT30;54596;43.216;27.904;2023-07-20T08:53:09;31.61;56.43
67799;SHT30;54596;43.216;27.904;2023-07-20T08:55:35;31.45;56.69
67799;SHT30;54596;43.216;27.904;2023-07-20T08:58:00;32.00;55.88
67799;SHT30;54596;43.216;27.904;2023-07-20T09:00:27;32.35;55.17
67799;SHT30;54596;43.216;27.904;2023-07-20T09:02:54;33.19;53.62
67799;SHT30;54596;43.216;27.904;2023-07-20T09:05:20;33.66;52.67
67799;SHT30;54596;43.216;27.904;2023-07-20T09:07:46;33.65;52.18
67799;SHT30;54596;43.216;27.904;2023-07-20T09:10:11;33.59;52.13
67799;SHT30;54596;43.216;27.904;2023-07-20T09:12:41;33.76;52.16
67799;SHT30;54596;43.216;27.904;2023-07-20T09:15:07;33.48;51.94
67799;SHT30;54596;43.216;27.904;2023-07-20T09:17:33;33.58;51.35
67799;SHT30;54596;43.216;27.904;2023-07-20T09:20:01;33.37;51.97
67799;SHT30;54596;43.216;27.904;2023-07-20T09:22:31;33.38;51.34
67799;SHT30;54596;43.216;27.904;2023-07-20T09:24:57;33.35;51.36
67799;SHT30;54596;43.216;27.904;2023-07-20T09:27:22;33.37;51.30
67799;SHT30;54596;43.216;27.904;2023-07-20T09:29:54;33.26;51.34
67799;SHT30;54596;43.216;27.904;2023-07-20T09:32:22;33.30;51.53
67799;SHT30;54596;43.216;27.904;2023-07-20T09:34:47;33.19;50.94
67799;SHT30;54596;43.216;27.904;2023-07-20T09:37:12;33.07;51.74
67799;SHT30;54596;43.216;27.904;2023-07-20T09:39:44;33.23;51.41
67799;SHT30;54596;43.216;27.904;2023-07-20T09:42:13;33.33;51.24
67799;SHT30;54596;43.216;27.904;2023-07-20T09:44:38;33.30;51.24
67799;SHT30;54596;43.216;27.904;2023-07-20T09:47:04;33.34;51.32
67799;SHT30;54596;43.216;27.904;2023-07-20T09:49:30;33.34;51.13
67799;SHT30;54596;43.216;27.904;2023-07-20T09:51:55;33.40;51.22
67799;SHT30;54596;43.216;27.904;2023-07-20T09:54:22;33.38;49.89
67799;SHT30;54596;43.216;27.904;2023-07-20T09:56:48;33.47;49.72
67799;SHT30;54596;43.216;27.904;2023-07-20T09:59:14;33.54;49.38
67799;SHT30;54596;43.216;27.904;2023-07-20T10:01:40;33.57;49.06
67799;SHT30;54596;43.216;27.904;2023-07-20T10:04:07;33.61;49.24
67799;SHT30;54596;43.216;27.904;2023-07-20T10:06:33;33.53;49.54
67799;SHT30;54596;43.216;27.904;2023-07-20T10:09:02;33.53;49.87
67799;SHT30;54596;43.216;27.904;2023-07-20T10:11:32;33.65;50.24
67799;SHT30;54596;43.216;27.904;2023-07-20T10:13:59;33.69;49.79
67799;SHT30;54596;43.216;27.904;2023-07-20T10:16:29;33.65;50.09
67799;SHT30;54596;43.216;27.904;2023-07-20T10:21:24;33.73;49.78
67799;SHT30;54596;43.216;27.904;2023-07-20T10:23:49;33.79;49.46
67799;SHT30;54596;43.216;27.904;2023-07-20T10:26:15;33.88;49.76
67799;SHT30;54596;43.216;27.904;2023-07-20T10:28:40;33.98;49.51
67799;SHT30;54596;43.216;27.904;2023-07-20T10:31:10;34.06;49.17
67799;SHT30;54596;43.216;27.904;2023-07-20T10:33:37;34.10;49.20
67799;SHT30;54596;43.216;27.904;2023-07-20T10:36:03;33.96;49.34
67799;SHT30;54596;43.216;27.904;2023-07-20T10:39:12;33.92;49.47
67799;SHT30;54596;43.216;27.904;2023-07-20T10:41:27;33.93;49.61
67799;SHT30;54596;43.216;27.904;2023-07-20T10:43:57;33.90;49.86
67799;SHT30;54596;43.216;27.904;2023-07-20T10:49:03;33.98;49.72
67799;SHT30;54596;43.216;27.904;2023-07-20T10:51:29;34.05;49.68
67799;SHT30;54596;43.216;27.904;2023-07-20T10:53:55;34.03;49.80
67799;SHT30;54596;43.216;27.904;2023-07-20T10:56:22;34.12;49.60
67799;SHT30;54596;43.216;27.904;2023-07-20T10:58:48;34.16;49.15
67799;SHT30;54596;43.216;27.904;2023-07-20T11:01:14;34.26;49.14
67799;SHT30;54596;43.216;27.904;2023-07-20T11:03:40;34.30;49.26
67799;SHT30;54596;43.216;27.904;2023-07-20T11:11:33;34.52;48.78
67799;SHT30;54596;43.216;27.904;2023-07-20T11:13:59;34.48;48.60
67799;SHT30;54596;43.216;27.904;2023-07-20T11:16:44;34.65;48.38
67799;SHT30;54596;43.216;27.904;2023-07-20T11:21:52;34.62;48.76
67799;SHT30;54596;43.216;27.904;2023-07-20T11:24:18;34.79;48.93
67799;SHT30;54596;43.216;27.904;2023-07-20T11:26:44;34.71;49.92
67799;SHT30;54596;43.216;27.904;2023-07-20T11:29:10;33.66;53.48
67799;SHT30;54596;43.216;27.904;2023-07-20T11:31:39;32.57;57.54
67799;SHT30;54596;43.216;27.904;2023-07-20T11:34:04;31.49;60.38
67799;SHT30;54596;43.216;27.904;2023-07-20T11:36:30;31.41;61.86
67799;SHT30;54596;43.216;27.904;2023-07-20T11:38:56;30.97;63.76
67799;SHT30;54596;43.216;27.904;2023-07-20T11:41:22;30.45;64.66
67799;SHT30;54596;43.216;27.904;2023-07-20T11:43:47;30.37;65.37
67799;SHT30;54596;43.216;27.904;2023-07-20T11:46:12;30.24;64.38
67799;SHT30;54596;43.216;27.904;2023-07-20T11:48:38;30.09;63.86
67799;SHT30;54596;43.216;27.904;2023-07-20T11:51:05;30.06;63.84
67799;SHT30;54596;43.216;27.904;2023-07-20T11:53:30;30.13;65.35
67799;SHT30;54596;43.216;27.904;2023-07-20T11:55:58;30.06;64.29
67799;SHT30;54596;43.216;27.904;2023-07-20T11:58:23;30.13;63.91
67799;SHT30;54596;43.216;27.904;2023-07-20T12:00:48;30.16;62.92
67799;SHT30;54596;43.216;27.904;2023-07-20T12:03:14;29.92;63.67
67799;SHT30;54596;43.216;27.904;2023-07-20T12:05:39;29.83;64.55
67799;SHT30;54596;43.216;27.904;2023-07-20T12:08:05;30.00;65.19
67799;SHT30;54596;43.216;27.904;2023-07-20T12:10:30;29.79;64.66
67799;SHT30;54596;43.216;27.904;2023-07-20T12:13:02;29.73;64.41
67799;SHT30;54596;43.216;27.904;2023-07-20T12:15:30;29.75;66.11
67799;SHT30;54596;43.216;27.904;2023-07-20T12:17:57;29.85;67.54
67799;SHT30;54596;43.216;27.904;2023-07-20T12:20:26;29.78;66.97
67799;SHT30;54596;43.216;27.904;2023-07-20T12:22:52;29.69;67.08
67799;SHT30;54596;43.216;27.904;2023-07-20T12:25:17;29.80;66.35
67799;SHT30;54596;43.216;27.904;2023-07-20T12:27:45;30.07;65.58
67799;SHT30;54596;43.216;27.904;2023-07-20T12:30:12;30.30;64.80
67799;SHT30;54596;43.216;27.904;2023-07-20T12:32:38;30.52;62.86
67799;SHT30;54596;43.216;27.904;2023-07-20T12:35:04;30.31;62.04
67799;SHT30;54596;43.216;27.904;2023-07-20T12:37:29;30.33;63.25
67799;SHT30;54596;43.216;27.904;2023-07-20T12:39:54;30.40;63.65
67799;SHT30;54596;43.216;27.904;2023-07-20T12:42:20;30.48;63.17
67799;SHT30;54596;43.216;27.904;2023-07-20T12:44:45;30.48;62.90
67799;SHT30;54596;43.216;27.904;2023-07-20T12:47:10;30.52;63.74
67799;SHT30;54596;43.216;27.904;2023-07-20T12:49:36;30.51;63.43
67799;SHT30;54596;43.216;27.904;2023-07-20T12:52:01;30.62;62.00
67799;SHT30;54596;43.216;27.904;2023-07-20T12:54:27;30.52;60.91
67799;SHT30;54596;43.216;27.904;2023-07-20T12:56:52;30.38;61.24
67799;SHT30;54596;43.216;27.904;2023-07-20T12:59:18;30.37;62.03
67799;SHT30;54596;43.216;27.904;2023-07-20T13:01:43;30.41;61.41
67799;SHT30;54596;43.216;27.904;2023-07-20T13:04:09;30.49;63.27
67799;SHT30;54596;43.216;27.904;2023-07-20T13:06:35;30.49;63.24
67799;SHT30;54596;43.216;27.904;2023-07-20T13:09:00;30.61;62.73
67799;SHT30;54596;43.216;27.904;2023-07-20T13:11:26;30.45;63.94
67799;SHT30;54596;43.216;27.904;2023-07-20T13:13:51;30.44;64.27
67799;SHT30;54596;43.216;27.904;2023-07-20T13:16:16;30.25;64.93
67799;SHT30;54596;43.216;27.904;2023-07-20T13:18:42;30.31;65.20
67799;SHT30;54596;43.216;27.904;2023-07-20T13:21:07;30.14;66.49
67799;SHT30;54596;43.216;27.904;2023-07-20T13:23:36;30.07;67.49
67799;SHT30;54596;43.216;27.904;2023-07-20T13:26:02;30.03;66.75
67799;SHT30;54596;43.216;27.904;2023-07-20T13:28:27;30.00;67.72
67799;SHT30;54596;43.216;27.904;2023-07-20T13:30:52;30.07;67.64
67799;SHT30;54596;43.216;27.904;2023-07-20T13:33:18;30.03;65.14
67799;SHT30;54596;43.216;27.904;2023-07-20T13:35:43;30.06;64.34
67799;SHT30;54596;43.216;27.904;2023-07-20T13:38:08;29.85;63.27
67799;SHT30;54596;43.216;27.904;2023-07-20T13:40:34;29.83;63.51
67799;SHT30;54596;43.216;27.904;2023-07-20T13:43:00;29.72;64.88
67799;SHT30;54596;43.216;27.904;2023-07-20T13:45:25;29.80;65.09
67799;SHT30;54596;43.216;27.904;2023-07-20T13:48:27;29.80;65.52
67799;SHT30;54596;43.216;27.904;2023-07-20T13:50:53;29.86;66.47
67799;SHT30;54596;43.216;27.904;2023-07-20T13:53:19;29.71;66.09
67799;SHT30;54596;43.216;27.904;2023-07-20T13:55:44;29.50;66.50
67799;SHT30;54596;43.216;27.904;2023-07-20T13:58:10;29.59;67.06
67799;SHT30;54596;43.216;27.904;2023-07-20T14:00:35;29.58;66.24
67799;SHT30;54596;43.216;27.904;2023-07-20T14:03:01;29.65;66.65
67799;SHT30;54596;43.216;27.904;2023-07-20T14:05:26;29.65;66.51
67799;SHT30;54596;43.216;27.904;2023-07-20T14:07:53;29.68;65.88
67799;SHT30;54596;43.216;27.904;2023-07-20T14:10:19;29.83;65.57
67799;SHT30;54596;43.216;27.904;2023-07-20T14:12:45;29.93;64.60
67799;SHT30;54596;43.216;27.904;2023-07-20T14:15:11;30.00;64.00
67799;SHT30;54596;43.216;27.904;2023-07-20T14:17:36;30.03;63.75
67799;SHT30;54596;43.216;27.904;2023-07-20T14:20:02;30.09;63.09
67799;SHT30;54596;43.216;27.904;2023-07-20T14:22:30;30.02;63.18
67799;SHT30;54596;43.216;27.904;2023-07-20T14:24:56;29.97;63.24
67799;SHT30;54596;43.216;27.904;2023-07-20T14:27:21;29.97;62.88
67799;SHT30;54596;43.216;27.904;2023-07-20T14:29:47;30.09;62.38
67799;SHT30;54596;43.216;27.904;2023-07-20T14:32:12;30.13;62.12
67799;SHT30;54596;43.216;27.904;2023-07-20T14:34:38;30.27;61.36
67799;SHT30;54596;43.216;27.904;2023-07-20T14:37:04;30.10;61.92
67799;SHT30;54596;43.216;27.904;2023-07-20T14:39:30;30.16;61.96
67799;SHT30;54596;43.216;27.904;2023-07-20T14:41:55;30.20;61.65
67799;SHT30;54596;43.216;27.904;2023-07-20T14:44:21;30.18;61.51
67799;SHT30;54596;43.216;27.904;2023-07-20T14:46:46;30.09;61.80
67799;SHT30;54596;43.216;27.904;2023-07-20T14:49:12;30.02;62.02
67799;SHT30;54596;43.216;27.904;2023-07-20T14:51:40;29.89;61.66
67799;SHT30;54596;43.216;27.904;2023-07-20T14:54:12;29.86;61.96
67799;SHT30;54596;43.216;27.904;2023-07-20T14:56:38;29.86;61.75
67799;SHT30;54596;43.216;27.904;2023-07-20T14:59:04;29.68;62.11
67799;SHT30;54596;43.216;27.904;2023-07-20T15:01:31;29.68;62.02
67799;SHT30;54596;43.216;27.904;2023-07-20T15:03:57;29.66;62.78
67799;SHT30;54596;43.216;27.904;2023-07-20T15:06:23;29.78;63.63
67799;SHT30;54596;43.216;27.904;2023-07-20T15:08:48;29.55;64.49
67799;SHT30;54596;43.216;27.904;2023-07-20T15:11:13;29.48;65.31
67799;SHT30;54596;43.216;27.904;2023-07-20T15:13:39;29.34;66.37
67799;SHT30;54596;43.216;27.904;2023-07-20T15:16:07;29.07;68.95
67799;SHT30;54596;43.216;27.904;2023-07-20T15:18:32;29.09;72.08
67799;SHT30;54596;43.216;27.904;2023-07-20T15:20:58;28.74;74.81
67799;SHT30;54596;43.216;27.904;2023-07-20T15:23:23;28.47;77.21
67799;SHT30;54596;43.216;27.904;2023-07-20T15:25:49;28.20;79.59
67799;SHT30;54596;43.216;27.904;2023-07-20T15:28:14;27.92;81.83
67799;SHT30;54596;43.216;27.904;2023-07-20T15:30:39;27.89;82.31